GLD1620 SAEZ-SUMU
Flight info
| Callsign | GLD1620 |
|---|---|
| Flight time | 0h 32m |
| Altitude | 15000 |
| Route | DORV1J DORVO A305 TOKAM |
| Aircraft | A20N/M-SDE2E3FGHIRWXY/LB1 |
Departure
| Time | 2026-05-04 13:28 |
|---|---|
| Airport | Ezeiza International Airport - Ministro Pistarini (SAEZ) |
Arrival
| Time | 2026-05-04 14:00 |
|---|---|
| Airport | Carrasco General Cesáreo L. Berisso International Airport (SUMU) |
| Time | Latitude | Longitude | Altitude | Speed | Heading |
|---|---|---|---|---|---|
| 2026-05-04 12:59 | -34.81595 | -58.53998 | 73 ft | 0 kts | 318° |
| 2026-05-04 13:03 | -34.81595 | -58.53997 | 73 ft | 0 kts | 318° |
| 2026-05-04 13:14 | -34.81599 | -58.53994 | 73 ft | 4 kts | 318° |
| 2026-05-04 13:15 | -34.81619 | -58.53972 | 62 ft | 4 kts | 317° |
| 2026-05-04 13:15 | -34.81639 | -58.53949 | 62 ft | 4 kts | 316° |
| 2026-05-04 13:15 | -34.81658 | -58.53927 | 62 ft | 4 kts | 316° |
| 2026-05-04 13:15 | -34.81678 | -58.53905 | 62 ft | 4 kts | 319° |
| 2026-05-04 13:16 | -34.81699 | -58.53885 | 64 ft | 4 kts | 337° |
| 2026-05-04 13:16 | -34.81717 | -58.53881 | 64 ft | 1 kts | 55° |
| 2026-05-04 13:16 | -34.81717 | -58.53882 | 63 ft | 0 kts | 56° |
| 2026-05-04 13:19 | -34.81714 | -58.53875 | 64 ft | 5 kts | 56° |
| 2026-05-04 13:19 | -34.81706 | -58.53791 | 73 ft | 15 kts | 107° |
| 2026-05-04 13:19 | -34.81790 | -58.53694 | 70 ft | 19 kts | 150° |
| 2026-05-04 13:20 | -34.81895 | -58.53653 | 64 ft | 14 kts | 198° |
| 2026-05-04 13:20 | -34.81983 | -58.53722 | 68 ft | 16 kts | 223° |
| 2026-05-04 13:20 | -34.82069 | -58.53828 | 62 ft | 19 kts | 227° |
| 2026-05-04 13:20 | -34.82160 | -58.53851 | 73 ft | 15 kts | 123° |
| 2026-05-04 13:21 | -34.82197 | -58.53721 | 65 ft | 18 kts | 103° |
| 2026-05-04 13:21 | -34.82227 | -58.53563 | 65 ft | 20 kts | 103° |
| 2026-05-04 13:21 | -34.82298 | -58.53414 | 69 ft | 22 kts | 144° |
| 2026-05-04 13:21 | -34.82440 | -58.53332 | 63 ft | 22 kts | 151° |
| 2026-05-04 13:22 | -34.82572 | -58.53255 | 69 ft | 20 kts | 155° |
| 2026-05-04 13:22 | -34.82691 | -58.53190 | 69 ft | 17 kts | 156° |
| 2026-05-04 13:22 | -34.82798 | -58.53132 | 70 ft | 20 kts | 155° |
| 2026-05-04 13:22 | -34.82927 | -58.53057 | 69 ft | 20 kts | 154° |
| 2026-05-04 13:23 | -34.83047 | -58.52988 | 68 ft | 18 kts | 155° |
| 2026-05-04 13:23 | -34.83160 | -58.52923 | 68 ft | 18 kts | 155° |
| 2026-05-04 13:23 | -34.83264 | -58.52863 | 73 ft | 15 kts | 154° |
| 2026-05-04 13:23 | -34.83351 | -58.52811 | 69 ft | 13 kts | 155° |
| 2026-05-04 13:24 | -34.83453 | -58.52756 | 66 ft | 18 kts | 156° |
| 2026-05-04 13:24 | -34.83539 | -58.52668 | 69 ft | 14 kts | 88° |
| 2026-05-04 13:24 | -34.83531 | -58.52613 | 68 ft | 0 kts | 77° |
| 2026-05-04 13:25 | -34.83526 | -58.52595 | 71 ft | 8 kts | 74° |
| 2026-05-04 13:25 | -34.83500 | -58.52529 | 62 ft | 10 kts | 35° |
| 2026-05-04 13:25 | -34.83430 | -58.52494 | 64 ft | 12 kts | 9° |
| 2026-05-04 13:25 | -34.83415 | -58.52498 | 71 ft | 0 kts | 341° |
| 2026-05-04 13:26 | -34.83414 | -58.52498 | 68 ft | 0 kts | 341° |
| 2026-05-04 13:26 | -34.83410 | -58.52500 | 67 ft | 4 kts | 341° |
| 2026-05-04 13:27 | -34.83348 | -58.52525 | 70 ft | 26 kts | 341° |
| 2026-05-04 13:27 | -34.82865 | -58.52695 | 70 ft | 113 kts | 345° |
| 2026-05-04 13:27 | -34.81901 | -58.53060 | 176 ft | 170 kts | 341° |
| 2026-05-04 13:27 | -34.80672 | -58.53541 | 593 ft | 198 kts | 341° |
| 2026-05-04 13:28 | -34.79280 | -58.54085 | 1081 ft | 210 kts | 342° |
| 2026-05-04 13:28 | -34.77939 | -58.54489 | 1475 ft | 191 kts | 345° |
| 2026-05-04 13:28 | -34.76680 | -58.54872 | 1814 ft | 190 kts | 332° |
| 2026-05-04 13:28 | -34.75700 | -58.56027 | 2162 ft | 213 kts | 296° |
| 2026-05-04 13:29 | -34.75418 | -58.57883 | 2873 ft | 234 kts | 269° |
| 2026-05-04 13:29 | -34.75640 | -58.59880 | 3864 ft | 241 kts | 263° |
| 2026-05-04 13:29 | -34.75921 | -58.61895 | 4942 ft | 242 kts | 265° |
| 2026-05-04 13:29 | -34.76133 | -58.63966 | 5914 ft | 247 kts | 267° |
| 2026-05-04 13:30 | -34.76262 | -58.66024 | 6874 ft | 249 kts | 269° |
| 2026-05-04 13:30 | -34.76349 | -58.68197 | 7759 ft | 257 kts | 268° |
| 2026-05-04 13:30 | -34.76778 | -58.70288 | 8632 ft | 264 kts | 245° |
| 2026-05-04 13:30 | -34.77872 | -58.72096 | 9534 ft | 271 kts | 224° |
| 2026-05-04 13:31 | -34.79468 | -58.73323 | 10430 ft | 275 kts | 203° |
| 2026-05-04 13:31 | -34.81349 | -58.73780 | 11336 ft | 280 kts | 186° |
| 2026-05-04 13:31 | -34.83317 | -58.73761 | 12224 ft | 285 kts | 181° |
| 2026-05-04 13:31 | -34.85342 | -58.73482 | 12792 ft | 305 kts | 175° |
| 2026-05-04 13:32 | -34.87495 | -58.72856 | 13076 ft | 333 kts | 167° |
| 2026-05-04 13:32 | -34.89739 | -58.71775 | 13338 ft | 360 kts | 159° |
| 2026-05-04 13:32 | -34.91934 | -58.70191 | 13962 ft | 373 kts | 149° |
| 2026-05-04 13:32 | -34.93977 | -58.68148 | 14610 ft | 384 kts | 141° |
| 2026-05-04 13:33 | -34.95770 | -58.65703 | 14895 ft | 393 kts | 131° |
| 2026-05-04 13:33 | -34.97239 | -58.62863 | 14992 ft | 398 kts | 120° |
| 2026-05-04 13:33 | -34.98305 | -58.59727 | 15003 ft | 402 kts | 110° |
| 2026-05-04 13:33 | -34.98927 | -58.56398 | 15001 ft | 405 kts | 99° |
| 2026-05-04 13:34 | -34.99086 | -58.52969 | 15001 ft | 406 kts | 89° |
| 2026-05-04 13:34 | -34.99101 | -58.49535 | 15001 ft | 406 kts | 90° |
| 2026-05-04 13:34 | -34.99026 | -58.46135 | 14998 ft | 406 kts | 88° |
| 2026-05-04 13:34 | -34.98911 | -58.42838 | 15000 ft | 406 kts | 88° |
| 2026-05-04 13:35 | -34.98797 | -58.39382 | 15003 ft | 407 kts | 88° |
| 2026-05-04 13:35 | -34.98608 | -58.32270 | 14999 ft | 406 kts | 89° |
| 2026-05-04 13:35 | -34.98528 | -58.28831 | 15003 ft | 406 kts | 89° |
| 2026-05-04 13:36 | -34.98453 | -58.25483 | 14999 ft | 406 kts | 89° |
| 2026-05-04 13:36 | -34.98373 | -58.22023 | 15001 ft | 406 kts | 89° |
| 2026-05-04 13:36 | -34.98293 | -58.18585 | 15000 ft | 406 kts | 89° |
| 2026-05-04 13:36 | -34.98215 | -58.15287 | 15002 ft | 406 kts | 89° |
| 2026-05-04 13:37 | -34.98168 | -58.13312 | 15001 ft | 406 kts | 89° |
| 2026-05-04 13:37 | -34.98058 | -58.08779 | 15003 ft | 406 kts | 89° |
| 2026-05-04 13:37 | -34.98000 | -58.06420 | 15002 ft | 406 kts | 89° |
| 2026-05-04 13:37 | -34.97914 | -58.02984 | 15003 ft | 406 kts | 89° |
| 2026-05-04 13:38 | -34.97828 | -57.99541 | 15003 ft | 406 kts | 89° |
| 2026-05-04 13:38 | -34.97742 | -57.96151 | 15003 ft | 406 kts | 89° |
| 2026-05-04 13:38 | -34.97608 | -57.92668 | 15000 ft | 406 kts | 82° |
| 2026-05-04 13:38 | -34.96870 | -57.89418 | 15003 ft | 404 kts | 63° |
| 2026-05-04 13:39 | -34.95354 | -57.86518 | 15006 ft | 399 kts | 47° |
| 2026-05-04 13:39 | -34.93576 | -57.83915 | 15002 ft | 399 kts | 47° |
| 2026-05-04 13:39 | -34.91798 | -57.81313 | 15002 ft | 399 kts | 47° |
| 2026-05-04 13:39 | -34.90031 | -57.78723 | 14999 ft | 399 kts | 47° |
| 2026-05-04 13:40 | -34.88250 | -57.76110 | 15003 ft | 399 kts | 47° |
| 2026-05-04 13:40 | -34.86486 | -57.73519 | 15002 ft | 399 kts | 47° |
| 2026-05-04 13:40 | -34.84710 | -57.70912 | 15005 ft | 399 kts | 47° |
| 2026-05-04 13:40 | -34.82945 | -57.68323 | 15008 ft | 398 kts | 47° |
| 2026-05-04 13:41 | -34.81167 | -57.65717 | 15010 ft | 399 kts | 47° |
| 2026-05-04 13:41 | -34.79400 | -57.63128 | 15010 ft | 398 kts | 47° |
| 2026-05-04 13:41 | -34.77655 | -57.60574 | 15013 ft | 398 kts | 47° |
| 2026-05-04 13:42 | -34.74120 | -57.55406 | 15021 ft | 397 kts | 47° |
| 2026-05-04 13:42 | -34.72561 | -57.52629 | 15018 ft | 401 kts | 63° |
| 2026-05-04 13:42 | -34.71744 | -57.49393 | 15019 ft | 403 kts | 82° |
| 2026-05-04 13:42 | -34.71723 | -57.45988 | 15023 ft | 402 kts | 96° |
| 2026-05-04 13:43 | -34.72076 | -57.42629 | 15020 ft | 402 kts | 100° |
| 2026-05-04 13:43 | -34.72491 | -57.39280 | 15019 ft | 401 kts | 100° |
| 2026-05-04 13:43 | -34.72874 | -57.35900 | 15021 ft | 402 kts | 98° |
| 2026-05-04 13:43 | -34.73205 | -57.32550 | 15021 ft | 402 kts | 98° |
| 2026-05-04 13:44 | -34.73506 | -57.29180 | 15023 ft | 402 kts | 97° |
| 2026-05-04 13:44 | -34.73796 | -57.25744 | 15026 ft | 402 kts | 97° |
| 2026-05-04 13:44 | -34.74078 | -57.22315 | 15022 ft | 402 kts | 97° |
| 2026-05-04 13:44 | -34.74352 | -57.18952 | 15024 ft | 403 kts | 97° |
| 2026-05-04 13:45 | -34.74629 | -57.15551 | 15027 ft | 403 kts | 97° |
| 2026-05-04 13:45 | -34.74904 | -57.12169 | 15030 ft | 403 kts | 97° |
| 2026-05-04 13:45 | -34.75179 | -57.08794 | 15009 ft | 400 kts | 97° |
| 2026-05-04 13:45 | -34.75448 | -57.05463 | 14937 ft | 392 kts | 97° |
| 2026-05-04 13:46 | -34.75709 | -57.02217 | 14831 ft | 380 kts | 97° |
| 2026-05-04 13:46 | -34.75961 | -56.99072 | 14707 ft | 367 kts | 97° |
| 2026-05-04 13:46 | -34.76205 | -56.96022 | 14594 ft | 355 kts | 97° |
| 2026-05-04 13:46 | -34.76438 | -56.93112 | 14334 ft | 349 kts | 97° |
| 2026-05-04 13:47 | -34.76674 | -56.90155 | 13976 ft | 346 kts | 97° |
| 2026-05-04 13:47 | -34.76906 | -56.87249 | 13605 ft | 343 kts | 97° |
| 2026-05-04 13:47 | -34.77132 | -56.84413 | 13244 ft | 340 kts | 97° |
| 2026-05-04 13:47 | -34.77357 | -56.81579 | 12873 ft | 336 kts | 97° |
| 2026-05-04 13:48 | -34.77583 | -56.78716 | 12507 ft | 333 kts | 96° |
| 2026-05-04 13:48 | -34.77802 | -56.75926 | 12143 ft | 330 kts | 96° |
| 2026-05-04 13:48 | -34.78023 | -56.73168 | 11790 ft | 327 kts | 98° |
| 2026-05-04 13:48 | -34.78537 | -56.70492 | 11425 ft | 322 kts | 113° |
| 2026-05-04 13:49 | -34.79537 | -56.68097 | 11058 ft | 318 kts | 122° |
| 2026-05-04 13:49 | -34.80625 | -56.65765 | 10702 ft | 315 kts | 121° |
| 2026-05-04 13:49 | -34.81683 | -56.63434 | 10350 ft | 313 kts | 120° |
| 2026-05-04 13:49 | -34.82712 | -56.61116 | 10011 ft | 310 kts | 119° |
| 2026-05-04 13:50 | -34.83724 | -56.58807 | 9606 ft | 308 kts | 119° |
| 2026-05-04 13:50 | -34.84712 | -56.56538 | 9203 ft | 307 kts | 118° |
| 2026-05-04 13:50 | -34.85710 | -56.54244 | 8778 ft | 306 kts | 118° |
| 2026-05-04 13:50 | -34.86704 | -56.51956 | 8377 ft | 305 kts | 118° |
| 2026-05-04 13:51 | -34.87687 | -56.49693 | 7988 ft | 303 kts | 118° |
| 2026-05-04 13:51 | -34.88674 | -56.47421 | 7601 ft | 302 kts | 118° |
| 2026-05-04 13:51 | -34.89653 | -56.45165 | 7200 ft | 301 kts | 118° |
| 2026-05-04 13:51 | -34.90628 | -56.42919 | 6818 ft | 300 kts | 117° |
| 2026-05-04 13:52 | -34.92568 | -56.38440 | 6074 ft | 297 kts | 117° |
| 2026-05-04 13:52 | -34.93528 | -56.36221 | 5677 ft | 296 kts | 117° |
| 2026-05-04 13:52 | -34.94466 | -56.34051 | 5299 ft | 295 kts | 117° |
| 2026-05-04 13:53 | -34.95427 | -56.31828 | 5068 ft | 291 kts | 117° |
| 2026-05-04 13:53 | -34.96379 | -56.29623 | 5007 ft | 295 kts | 117° |
| 2026-05-04 13:53 | -34.97329 | -56.27421 | 4998 ft | 293 kts | 117° |
| 2026-05-04 13:54 | -34.99247 | -56.22975 | 5002 ft | 293 kts | 117° |
| 2026-05-04 13:54 | -35.00185 | -56.20797 | 5003 ft | 294 kts | 117° |
| 2026-05-04 13:54 | -35.02093 | -56.16360 | 5001 ft | 294 kts | 117° |
| 2026-05-04 13:55 | -35.03040 | -56.14135 | 5002 ft | 294 kts | 114° |
| 2026-05-04 13:55 | -35.03165 | -56.09399 | 4681 ft | 284 kts | 68° |
| 2026-05-04 13:55 | -35.02456 | -56.07172 | 4518 ft | 275 kts | 63° |
| 2026-05-04 13:56 | -35.01708 | -56.05086 | 4405 ft | 263 kts | 59° |
| 2026-05-04 13:56 | -35.00600 | -56.03463 | 4307 ft | 241 kts | 28° |
| 2026-05-04 13:56 | -34.97611 | -56.02883 | 4287 ft | 214 kts | 353° |
| 2026-05-04 13:57 | -34.96187 | -56.02929 | 4258 ft | 201 kts | 353° |
| 2026-05-04 13:57 | -34.94821 | -56.02952 | 4143 ft | 191 kts | 354° |
| 2026-05-04 13:58 | -34.91461 | -56.02977 | 3191 ft | 150 kts | 352° |
| 2026-05-04 13:58 | -34.89349 | -56.03043 | 2096 ft | 152 kts | 353° |
| 2026-05-04 13:58 | -34.88295 | -56.03032 | 1605 ft | 149 kts | 354° |
| 2026-05-04 13:59 | -34.87276 | -56.03021 | 1169 ft | 144 kts | 354° |
| 2026-05-04 13:59 | -34.86299 | -56.03061 | 815 ft | 137 kts | 353° |
| 2026-05-04 13:59 | -34.84443 | -56.03077 | 251 ft | 131 kts | 356° |
| 2026-05-04 14:00 | -34.83576 | -56.03084 | 87 ft | 117 kts | 359° |
| 2026-05-04 14:00 | -34.83046 | -56.02963 | 83 ft | 17 kts | 86° |
| 2026-05-04 14:00 | -34.83081 | -56.02864 | 84 ft | 0 kts | 162° |
| 2026-05-04 14:02 | -34.83101 | -56.02859 | 86 ft | 7 kts | 175° |
| 2026-05-04 14:02 | -34.83172 | -56.02854 | 85 ft | 14 kts | 177° |
| 2026-05-04 14:02 | -34.83311 | -56.02853 | 84 ft | 23 kts | 180° |
| 2026-05-04 14:03 | -34.83485 | -56.02855 | 84 ft | 26 kts | 176° |
| 2026-05-04 14:03 | -34.83673 | -56.02847 | 82 ft | 28 kts | 185° |
| 2026-05-04 14:03 | -34.83873 | -56.02843 | 84 ft | 29 kts | 172° |
| 2026-05-04 14:03 | -34.83960 | -56.02677 | 83 ft | 24 kts | 76° |
| 2026-05-04 14:04 | -34.83934 | -56.02537 | 82 ft | 3 kts | 353° |
| 2026-05-04 14:04 | -34.83893 | -56.02540 | 84 ft | 8 kts | 15° |
| 2026-05-04 14:04 | -34.83863 | -56.02540 | 85 ft | 0 kts | 359° |